Hegewisch, Illinois
Current Conditions -  °F | °C
As of 2:45 PM on Sunday 21 Dec 2014 (Local Time) from KGYY Reporting Station
Overcast Overcast  
Wind Chill: 31°   Ceiling: 3800
Heat Index: 37°   Visibility: 10mi
Dew Point: 25°   Wind: 9mph
Humidity: 60%   Direction: 160°SSE
Pressure: 30.12"   Gusts: NA
Location:  41.6563°N, 87.5444°W
Report Text: KGYY 212045Z 16008KT 10SM OVC038 03/M04 A3012
Loading
Personal Weather Stations






























Interactive Weather Map New forecast layout! Learn more

10-Day Weather Forecast

Advertisements
Track Severe Weather on mobile